createdAt,value
2019-03-26T00:00:31.196Z,5.13
2019-03-26T00:03:00.097Z,4.60
2019-03-26T00:05:29.010Z,4.90
2019-03-26T00:07:57.909Z,4.20
2019-03-26T00:10:26.829Z,4.67
2019-03-26T00:12:55.747Z,4.70
2019-03-26T00:15:24.757Z,3.90
2019-03-26T00:17:53.662Z,4.67
2019-03-26T00:20:22.572Z,4.63
2019-03-26T00:22:51.820Z,4.03
2019-03-26T00:25:20.819Z,4.10
2019-03-26T00:27:49.721Z,4.50
2019-03-26T00:30:18.697Z,4.17
2019-03-26T00:32:47.611Z,3.93
2019-03-26T00:35:16.517Z,4.17
2019-03-26T00:37:45.427Z,4.50
2019-03-26T00:40:14.410Z,4.03
2019-03-26T00:42:43.334Z,4.53
2019-03-26T00:45:12.241Z,4.27
2019-03-26T00:47:41.170Z,4.07
2019-03-26T00:50:10.158Z,3.90
2019-03-26T00:52:39.078Z,3.83
2019-03-26T00:55:21.615Z,3.40
2019-03-26T00:57:38.785Z,4.27
2019-03-26T01:00:08.466Z,3.80
2019-03-26T01:02:37.393Z,3.73
2019-03-26T01:05:06.776Z,3.40
2019-03-26T01:07:35.698Z,3.77
2019-03-26T01:10:06.893Z,3.33
2019-03-26T01:12:35.806Z,4.07
2019-03-26T01:15:07.027Z,2.83
2019-03-26T01:17:35.947Z,3.90
2019-03-26T01:20:06.272Z,3.53
2019-03-26T01:22:35.550Z,3.23
2019-03-26T01:25:05.269Z,3.30
2019-03-26T01:27:34.182Z,3.87
2019-03-26T01:30:03.374Z,3.10
2019-03-26T01:32:32.280Z,3.70
2019-03-26T01:35:01.265Z,3.43
2019-03-26T01:37:30.193Z,3.50
2019-03-26T01:39:59.123Z,3.60
2019-03-26T01:42:28.031Z,2.87
2019-03-26T01:44:56.938Z,2.87
2019-03-26T01:47:25.859Z,2.83
2019-03-26T01:49:54.761Z,2.40
2019-03-26T01:52:24.014Z,3.43
2019-03-26T01:54:53.342Z,2.90
2019-03-26T01:57:22.679Z,3.00
2019-03-26T01:59:52.005Z,2.70
2019-03-26T02:02:21.346Z,3.07
2019-03-26T02:04:59.748Z,3.40
2019-03-26T02:07:21.713Z,2.60
2019-03-26T02:09:50.721Z,2.80
2019-03-26T02:12:19.629Z,2.90
2019-03-26T02:14:48.548Z,3.27
2019-03-26T02:17:17.782Z,2.90
2019-03-26T02:19:46.782Z,3.07
2019-03-26T02:22:15.702Z,2.97
2019-03-26T02:24:44.630Z,3.70
2019-03-26T02:27:13.870Z,2.73
2019-03-26T02:29:42.884Z,3.13
2019-03-26T02:32:11.787Z,2.90
2019-03-26T02:34:40.718Z,3.20
2019-03-26T02:37:09.634Z,3.30
2019-03-26T02:39:38.529Z,2.90
2019-03-26T02:42:07.461Z,3.40
2019-03-26T02:44:36.378Z,2.93
2019-03-26T02:47:05.301Z,3.50
2019-03-26T02:49:34.546Z,3.53
2019-03-26T02:52:03.577Z,4.53
2019-03-26T02:54:32.474Z,3.23
2019-03-26T02:57:01.655Z,3.23
2019-03-26T02:59:30.566Z,4.33
2019-03-26T03:01:59.487Z,3.93
2019-03-26T03:04:28.405Z,4.47
2019-03-26T03:06:57.669Z,3.83
2019-03-26T03:09:26.650Z,3.10
2019-03-26T03:11:55.575Z,3.70
2019-03-26T03:14:24.483Z,3.40
2019-03-26T03:16:53.346Z,3.33
2019-03-26T03:19:22.281Z,3.63
2019-03-26T03:21:51.196Z,3.63
2019-03-26T03:24:20.104Z,3.23
2019-03-26T03:26:49.015Z,3.67
2019-03-26T03:29:17.927Z,3.90
2019-03-26T03:31:46.846Z,4.03
2019-03-26T03:34:15.766Z,3.73
2019-03-26T03:36:44.678Z,3.57
2019-03-26T03:39:13.594Z,5.33
2019-03-26T03:41:42.516Z,3.10
2019-03-26T03:44:11.437Z,3.90
2019-03-26T03:46:40.910Z,3.93
2019-03-26T03:49:09.891Z,4.27
2019-03-26T03:51:39.379Z,4.50
2019-03-26T03:54:08.459Z,2.83
2019-03-26T03:56:37.563Z,3.70
2019-03-26T03:59:07.997Z,3.57
2019-03-26T04:01:36.917Z,3.37
2019-03-26T04:04:05.821Z,3.77
2019-03-26T04:06:34.749Z,3.70
2019-03-26T04:09:04.635Z,3.27
2019-03-26T04:11:33.566Z,3.90
2019-03-26T04:14:02.465Z,4.40
2019-03-26T04:16:31.409Z,3.47
2019-03-26T04:19:00.635Z,3.80
2019-03-26T04:21:29.646Z,4.17
2019-03-26T04:23:58.570Z,3.30
2019-03-26T04:26:27.494Z,4.27
2019-03-26T04:28:56.399Z,3.57
2019-03-26T04:31:25.651Z,4.13
2019-03-26T04:33:54.654Z,3.73
2019-03-26T04:36:26.065Z,4.33
2019-03-26T04:38:54.513Z,4.43
2019-03-26T04:41:23.606Z,3.73
2019-03-26T04:43:52.506Z,4.10
2019-03-26T04:46:21.417Z,4.27
2019-03-26T04:48:50.326Z,3.60
2019-03-26T04:51:19.253Z,3.33
2019-03-26T04:53:48.491Z,3.43
2019-03-26T04:56:17.830Z,3.03
2019-03-26T04:58:46.821Z,3.93
2019-03-26T05:01:16.075Z,3.17
2019-03-26T05:03:45.062Z,3.87
2019-03-26T05:06:13.983Z,3.50
2019-03-26T05:08:42.893Z,3.83
2019-03-26T05:11:11.823Z,3.23
2019-03-26T05:13:40.734Z,3.70
2019-03-26T05:16:09.647Z,3.97
2019-03-26T05:18:38.574Z,3.37
2019-03-26T05:21:07.482Z,4.07
2019-03-26T05:23:36.408Z,2.83
2019-03-26T05:26:05.327Z,3.37
2019-03-26T05:28:34.230Z,3.27
2019-03-26T05:31:03.148Z,3.70
2019-03-26T05:33:32.045Z,3.17
2019-03-26T05:36:00.978Z,2.70
2019-03-26T05:38:29.874Z,2.63
2019-03-26T05:40:59.555Z,3.63
2019-03-26T05:43:28.595Z,3.37
2019-03-26T05:45:57.506Z,3.50
2019-03-26T05:48:26.465Z,3.37
2019-03-26T05:50:55.699Z,2.67
2019-03-26T05:53:24.710Z,2.57
2019-03-26T05:55:53.617Z,2.47
2019-03-26T05:58:22.532Z,2.73
2019-03-26T06:00:51.434Z,2.53
2019-03-26T06:03:20.753Z,2.37
2019-03-26T06:05:49.743Z,2.57
2019-03-26T06:08:18.656Z,3.40
2019-03-26T06:10:47.902Z,3.17
2019-03-26T06:13:16.893Z,2.67
2019-03-26T06:15:45.823Z,2.90
2019-03-26T06:18:14.737Z,3.40
2019-03-26T06:20:43.659Z,6.97
2019-03-26T06:23:12.561Z,4.17
2019-03-26T06:25:41.466Z,2.77
2019-03-26T06:28:10.394Z,2.80
2019-03-26T06:30:39.309Z,2.03
2019-03-26T06:33:08.541Z,2.90
2019-03-26T06:35:37.549Z,2.80
2019-03-26T06:38:06.781Z,2.37
2019-03-26T06:40:36.118Z,2.90
2019-03-26T06:43:05.446Z,2.83
2019-03-26T06:45:34.776Z,2.03
2019-03-26T06:48:04.465Z,2.13
2019-03-26T06:50:33.630Z,2.07
2019-03-26T06:53:02.542Z,2.50
2019-03-26T06:55:31.464Z,2.63
2019-03-26T06:58:00.716Z,2.60
2019-03-26T07:00:33.684Z,1.90
2019-03-26T07:03:05.147Z,2.00
2019-03-26T07:05:34.504Z,2.23
2019-03-26T07:08:03.821Z,2.37
2019-03-26T07:10:33.219Z,2.27
2019-03-26T07:13:02.224Z,2.30
2019-03-26T07:15:31.141Z,2.37
2019-03-26T07:18:01.414Z,2.43
2019-03-26T07:20:31.929Z,9.23
2019-03-26T07:23:02.411Z,4.40
2019-03-26T07:25:32.088Z,2.50
2019-03-26T07:28:01.541Z,2.20
2019-03-26T07:30:41.810Z,2.53
2019-03-26T07:33:11.342Z,2.97
2019-03-26T07:35:41.024Z,2.53
2019-03-26T07:38:10.687Z,3.10
2019-03-26T07:40:39.690Z,3.03
2019-03-26T07:43:08.609Z,3.40
2019-03-26T07:45:37.529Z,2.53
2019-03-26T07:48:06.822Z,3.10
2019-03-26T07:50:36.166Z,3.00
2019-03-26T07:53:05.496Z,2.63
2019-03-26T07:55:34.489Z,2.70
2019-03-26T07:58:03.570Z,3.57
2019-03-26T08:00:34.014Z,2.60
2019-03-26T08:03:02.937Z,3.17
2019-03-26T08:05:32.168Z,2.73
2019-03-26T08:08:01.494Z,4.00
2019-03-26T08:10:30.822Z,3.33
2019-03-26T08:13:00.186Z,2.80
2019-03-26T08:15:29.498Z,3.47
2019-03-26T08:17:58.506Z,2.67
2019-03-26T08:20:27.413Z,2.67
2019-03-26T08:22:56.352Z,3.53
2019-03-26T08:25:25.582Z,2.80
2019-03-26T08:27:54.582Z,2.77
2019-03-26T08:30:23.840Z,2.90
2019-03-26T08:32:53.157Z,3.00
2019-03-26T08:35:22.497Z,2.83
2019-03-26T08:37:51.830Z,2.70
2019-03-26T08:40:23.389Z,3.17
2019-03-26T08:42:52.330Z,2.67
2019-03-26T08:45:21.722Z,3.33
2019-03-26T08:47:51.057Z,2.77
2019-03-26T08:50:20.396Z,2.93
2019-03-26T08:52:49.730Z,2.60
2019-03-26T08:55:19.057Z,2.90
2019-03-26T08:57:48.406Z,3.00
2019-03-26T09:00:18.794Z,3.13
2019-03-26T09:02:48.282Z,2.80
2019-03-26T09:05:17.695Z,3.87
2019-03-26T09:07:50.777Z,2.40
2019-03-26T09:10:21.242Z,4.10
2019-03-26T09:12:52.628Z,2.30
2019-03-26T09:15:22.014Z,2.83
2019-03-26T09:17:51.389Z,3.00
2019-03-26T09:20:20.725Z,7.97
2019-03-26T09:22:50.073Z,44.60
2019-03-26T09:25:19.397Z,38.80
2019-03-26T09:27:48.733Z,39.37
2019-03-26T09:30:18.212Z,5.70
2019-03-26T09:32:47.541Z,3.60
2019-03-26T09:35:17.055Z,2.40
2019-03-26T09:37:46.391Z,3.10
2019-03-26T09:40:16.007Z,4.10
2019-03-26T09:42:45.389Z,6.10
2019-03-26T09:45:14.870Z,2.80
2019-03-26T09:47:44.209Z,2.60
2019-03-26T09:50:13.865Z,2.50
2019-03-26T09:52:43.210Z,2.20
2019-03-26T09:55:12.705Z,2.00
2019-03-26T09:57:42.037Z,2.20
2019-03-26T10:00:12.210Z,1.70
2019-03-26T10:02:43.391Z,1.60
2019-03-26T10:05:12.894Z,1.80
2019-03-26T10:07:42.298Z,2.23
2019-03-26T10:10:12.562Z,1.73
2019-03-26T10:12:41.894Z,2.03
2019-03-26T10:15:11.728Z,1.67
2019-03-26T10:17:41.100Z,1.70
2019-03-26T10:20:10.675Z,1.73
2019-03-26T10:22:40.009Z,1.87
2019-03-26T10:25:11.245Z,1.50
2019-03-26T10:27:40.890Z,2.57
2019-03-26T10:30:12.531Z,2.10
2019-03-26T10:32:41.871Z,1.90
2019-03-26T10:35:11.545Z,1.83
2019-03-26T10:37:40.879Z,2.07
2019-03-26T10:40:12.110Z,1.93
2019-03-26T10:42:41.454Z,2.90
2019-03-26T10:45:10.895Z,1.90
2019-03-26T10:47:40.254Z,2.00
2019-03-26T10:50:09.859Z,2.30
2019-03-26T10:52:39.199Z,2.07
2019-03-26T10:55:08.599Z,1.90
2019-03-26T10:57:37.957Z,2.50
2019-03-26T11:00:07.843Z,1.87
2019-03-26T11:02:37.166Z,1.80
2019-03-26T11:05:07.145Z,2.20
2019-03-26T11:07:36.465Z,2.13
2019-03-26T11:10:07.298Z,2.05
2019-03-26T11:12:36.702Z,2.47
2019-03-26T11:15:07.981Z,2.12
2019-03-26T11:17:37.386Z,2.10
2019-03-26T11:20:07.150Z,1.70
2019-03-26T11:22:36.605Z,1.90
2019-03-26T11:25:07.829Z,2.10
2019-03-26T11:27:37.303Z,2.00
2019-03-26T11:30:07.875Z,2.10
2019-03-26T11:32:37.554Z,2.50
2019-03-26T11:35:07.926Z,2.27
2019-03-26T11:37:37.897Z,2.00
2019-03-26T11:40:08.973Z,2.00
2019-03-26T11:42:38.314Z,2.50
2019-03-26T11:45:09.545Z,2.50
2019-03-26T11:47:39.685Z,2.00
2019-03-26T11:50:10.225Z,2.93
2019-03-26T11:52:39.980Z,2.00
2019-03-26T11:55:10.485Z,2.10
2019-03-26T11:57:39.830Z,1.90
2019-03-26T12:00:11.961Z,1.90
2019-03-26T12:02:41.302Z,2.00
2019-03-26T12:05:10.915Z,2.10
2019-03-26T12:07:42.770Z,1.97
2019-03-26T12:10:11.947Z,2.17
2019-03-26T12:12:41.277Z,1.87
2019-03-26T12:15:11.733Z,1.40
2019-03-26T12:17:41.067Z,1.50
2019-03-26T12:20:10.738Z,1.90
2019-03-26T12:22:40.072Z,1.40
2019-03-26T12:25:10.376Z,2.20
2019-03-26T12:27:39.764Z,2.33
2019-03-26T12:30:09.635Z,1.73
2019-03-26T12:32:40.878Z,2.00
2019-03-26T12:35:11.705Z,1.60
2019-03-26T12:37:41.039Z,1.37
2019-03-26T12:40:10.606Z,1.77
2019-03-26T12:42:39.951Z,1.67
2019-03-26T12:45:09.618Z,1.63
2019-03-26T12:47:38.951Z,1.93
2019-03-26T12:50:08.516Z,1.80
2019-03-26T12:52:37.837Z,1.73
2019-03-26T12:55:07.165Z,1.53
2019-03-26T12:57:36.501Z,2.03
2019-03-26T13:00:10.108Z,1.60
2019-03-26T13:02:39.449Z,1.60
2019-03-26T13:05:09.015Z,1.73
2019-03-26T13:07:38.358Z,1.60
2019-03-26T13:10:13.746Z,1.60
2019-03-26T13:12:39.541Z,1.90
2019-03-26T13:15:09.022Z,1.50
2019-03-26T13:17:38.347Z,2.07
2019-03-26T13:20:07.862Z,2.23
2019-03-26T13:22:37.183Z,3.00
2019-03-26T13:25:11.538Z,1.80
2019-03-26T13:27:40.862Z,1.87
2019-03-26T13:30:11.925Z,1.70
2019-03-26T13:32:41.254Z,2.33
2019-03-26T13:35:11.035Z,2.27
2019-03-26T13:37:40.433Z,1.97
2019-03-26T13:40:10.095Z,1.97
2019-03-26T13:42:39.422Z,1.97
2019-03-26T13:45:08.985Z,2.13
2019-03-26T13:47:38.339Z,2.13
2019-03-26T13:50:08.193Z,2.10
2019-03-26T13:52:37.595Z,2.10
2019-03-26T13:55:08.359Z,2.60
2019-03-26T13:57:37.698Z,1.90
2019-03-26T14:00:09.832Z,2.03
2019-03-26T14:02:39.229Z,1.90
2019-03-26T14:05:17.580Z,2.00
2019-03-26T14:07:46.926Z,2.00
2019-03-26T14:10:16.426Z,2.43
2019-03-26T14:12:45.742Z,2.70
2019-03-26T14:15:15.077Z,2.30
2019-03-26T14:17:44.403Z,2.10
2019-03-26T14:20:14.131Z,1.73
2019-03-26T14:22:43.578Z,2.50
2019-03-26T14:25:13.213Z,1.60
2019-03-26T14:27:42.533Z,2.00
2019-03-26T14:30:13.373Z,2.53
2019-03-26T14:32:42.774Z,2.33
2019-03-26T14:35:12.286Z,2.00
2019-03-26T14:37:51.132Z,2.10
2019-03-26T14:40:12.874Z,2.50
2019-03-26T14:42:42.209Z,2.40
2019-03-26T14:45:11.790Z,2.30
2019-03-26T14:47:41.121Z,2.17
2019-03-26T14:50:10.674Z,1.83
2019-03-26T14:52:40.002Z,1.60
2019-03-26T14:55:09.569Z,1.87
2019-03-26T14:57:38.902Z,2.13
2019-03-26T15:00:08.717Z,2.00
2019-03-26T15:02:38.103Z,1.77
2019-03-26T15:05:07.700Z,1.90
2019-03-26T15:07:37.024Z,1.80
2019-03-26T15:10:07.586Z,2.20
2019-03-26T15:12:36.906Z,2.00
2019-03-26T15:15:07.291Z,2.00
2019-03-26T15:17:36.613Z,1.93
2019-03-26T15:20:07.039Z,2.12
2019-03-26T15:22:36.364Z,1.90
2019-03-26T15:25:06.394Z,1.75
2019-03-26T15:27:35.722Z,1.90
2019-03-26T15:30:07.455Z,1.83
2019-03-26T15:32:36.799Z,2.43
2019-03-26T15:35:07.273Z,1.97
2019-03-26T15:37:36.602Z,2.10
2019-03-26T15:40:08.213Z,1.92
2019-03-26T15:42:37.542Z,1.67
2019-03-26T15:45:07.922Z,2.47
2019-03-26T15:47:37.246Z,2.30
2019-03-26T15:50:07.822Z,2.40
2019-03-26T15:52:37.182Z,1.87
2019-03-26T15:55:07.053Z,2.50
2019-03-26T15:57:36.961Z,2.20
2019-03-26T16:00:10.429Z,2.47
2019-03-26T16:02:39.770Z,2.20
2019-03-26T16:05:09.330Z,1.90
2019-03-26T16:07:48.354Z,2.03
2019-03-26T16:10:17.706Z,1.80
2019-03-26T16:12:47.030Z,1.80
2019-03-26T16:15:16.362Z,2.57
2019-03-26T16:17:45.696Z,2.43
2019-03-26T16:20:15.253Z,2.20
2019-03-26T16:22:44.631Z,1.57
2019-03-26T16:25:14.099Z,1.80
2019-03-26T16:27:44.240Z,1.80
2019-03-26T16:30:14.169Z,2.40
2019-03-26T16:32:43.482Z,1.60
2019-03-26T16:35:14.369Z,1.60
2019-03-26T16:37:49.434Z,1.70
2019-03-26T16:40:19.130Z,1.43
2019-03-26T16:42:48.450Z,1.30
2019-03-26T16:45:19.332Z,1.47
2019-03-26T16:47:48.926Z,1.50
2019-03-26T16:50:25.977Z,1.57
2019-03-26T16:52:55.305Z,1.70
2019-03-26T16:55:24.631Z,1.30
2019-03-26T16:57:53.959Z,1.40
2019-03-26T17:00:31.252Z,1.30
2019-03-26T17:03:05.018Z,0.87
2019-03-26T17:05:44.728Z,1.00
2019-03-26T17:08:14.063Z,1.10
2019-03-26T17:10:44.462Z,1.00
2019-03-26T17:13:14.227Z,0.70
2019-03-26T17:15:43.549Z,1.30
2019-03-26T17:18:12.874Z,0.80
2019-03-26T17:20:42.204Z,1.23
2019-03-26T17:23:11.525Z,1.33
2019-03-26T17:25:40.851Z,0.80
2019-03-26T17:28:10.194Z,1.00
2019-03-26T17:30:39.519Z,0.97
2019-03-26T17:33:08.833Z,0.80
2019-03-26T17:35:38.170Z,0.80
2019-03-26T17:38:07.493Z,0.70
2019-03-26T17:40:36.834Z,0.67
2019-03-26T17:43:06.182Z,1.07
2019-03-26T17:45:35.510Z,0.60
2019-03-26T17:48:04.914Z,0.83
2019-03-26T17:50:34.246Z,0.70
2019-03-26T17:53:03.577Z,0.80
2019-03-26T17:55:32.901Z,0.70
2019-03-26T17:58:02.277Z,0.90
2019-03-26T18:00:37.013Z,1.03
2019-03-26T18:03:06.424Z,0.70
2019-03-26T18:05:35.741Z,0.70
2019-03-26T18:08:05.138Z,0.80
2019-03-26T18:10:34.469Z,0.80
2019-03-26T18:13:03.853Z,0.80
2019-03-26T18:15:33.182Z,1.10
2019-03-26T18:18:02.501Z,0.90
2019-03-26T18:20:33.053Z,0.77
2019-03-26T18:23:02.530Z,0.70
2019-03-26T18:25:31.865Z,0.77
2019-03-26T18:28:01.186Z,1.10
2019-03-26T18:30:30.528Z,0.90
2019-03-26T18:33:00.677Z,1.00
2019-03-26T18:35:30.006Z,1.00
2019-03-26T18:37:59.334Z,1.17
2019-03-26T18:40:28.653Z,1.03
2019-03-26T18:42:57.985Z,1.20
2019-03-26T18:45:27.301Z,1.27
2019-03-26T18:47:56.629Z,1.43
2019-03-26T18:50:25.949Z,1.60
2019-03-26T18:52:55.278Z,1.10
2019-03-26T18:55:25.330Z,1.40
2019-03-26T18:57:54.805Z,1.30
2019-03-26T19:00:34.622Z,1.40
2019-03-26T19:03:04.794Z,1.80
2019-03-26T19:05:34.125Z,2.27
2019-03-26T19:08:03.515Z,1.37
2019-03-26T19:10:34.964Z,1.80
2019-03-26T19:13:17.961Z,1.53
2019-03-26T19:15:35.552Z,1.50
2019-03-26T19:18:04.937Z,1.53
2019-03-26T19:20:34.269Z,1.57
2019-03-26T19:23:03.660Z,1.40
2019-03-26T19:25:33.058Z,1.73
2019-03-26T19:28:02.382Z,2.33
2019-03-26T19:30:31.703Z,1.60
2019-03-26T19:33:01.038Z,1.70
2019-03-26T19:35:30.359Z,1.90
2019-03-26T19:37:59.699Z,1.93
2019-03-26T19:40:29.090Z,1.90
2019-03-26T19:43:10.072Z,1.90
2019-03-26T19:45:29.461Z,1.93
2019-03-26T19:48:06.744Z,1.93
2019-03-26T19:50:37.812Z,1.70
2019-03-26T19:53:07.161Z,1.80
2019-03-26T19:55:36.478Z,1.97
2019-03-26T19:58:05.821Z,2.77
2019-03-26T20:00:35.141Z,1.73
2019-03-26T20:03:04.473Z,1.67
2019-03-26T20:05:35.351Z,1.70
2019-03-26T20:08:05.080Z,1.83
2019-03-26T20:10:34.419Z,1.70
2019-03-26T20:13:04.433Z,2.10
2019-03-26T20:15:35.321Z,1.80
2019-03-26T20:18:04.717Z,1.90
2019-03-26T20:20:34.071Z,1.73
2019-03-26T20:23:03.394Z,1.97
2019-03-26T20:25:32.721Z,2.10
2019-03-26T20:28:02.033Z,2.17
2019-03-26T20:30:31.388Z,2.10
2019-03-26T20:33:01.909Z,2.23
2019-03-26T20:35:31.254Z,2.20
2019-03-26T20:38:00.577Z,2.30
2019-03-26T20:40:29.898Z,2.60
2019-03-26T20:42:59.226Z,2.60
2019-03-26T20:45:28.570Z,2.40
2019-03-26T20:47:57.915Z,2.50
2019-03-26T20:50:27.315Z,2.53
2019-03-26T20:52:56.642Z,2.40
2019-03-26T20:55:33.193Z,2.50
2019-03-26T20:58:02.608Z,2.57
2019-03-26T21:00:39.454Z,2.13
2019-03-26T21:03:09.018Z,2.43
2019-03-26T21:05:38.690Z,2.90
2019-03-26T21:08:08.296Z,2.40
2019-03-26T21:10:37.617Z,3.07
2019-03-26T21:13:07.109Z,2.80
2019-03-26T21:15:36.554Z,2.87
2019-03-26T21:18:05.988Z,2.93
2019-03-26T21:20:35.346Z,3.40
2019-03-26T21:23:04.729Z,2.87
2019-03-26T21:25:34.061Z,3.37
2019-03-26T21:28:03.510Z,3.37
2019-03-26T21:30:32.867Z,3.00
2019-03-26T21:33:02.189Z,3.07
2019-03-26T21:35:31.518Z,2.97
2019-03-26T21:38:00.850Z,3.40
2019-03-26T21:40:30.182Z,3.27
2019-03-26T21:42:59.505Z,2.63
2019-03-26T21:45:33.949Z,2.87
2019-03-26T21:48:05.013Z,3.23
2019-03-26T21:50:34.337Z,3.50
2019-03-26T21:53:03.907Z,4.30
2019-03-26T21:55:33.266Z,4.07
2019-03-26T21:58:02.606Z,3.70
2019-03-26T22:00:31.950Z,4.40
2019-03-26T22:03:01.364Z,4.07
2019-03-26T22:05:30.705Z,5.33
2019-03-26T22:08:00.034Z,3.93
2019-03-26T22:10:29.358Z,4.57
2019-03-26T22:12:58.693Z,4.10
2019-03-26T22:15:28.014Z,4.63
2019-03-26T22:17:57.341Z,4.53
2019-03-26T22:20:26.678Z,4.00
2019-03-26T22:22:56.058Z,4.40
2019-03-26T22:25:25.501Z,4.37
2019-03-26T22:27:54.826Z,4.43
2019-03-26T22:30:24.157Z,4.13
2019-03-26T22:32:53.478Z,4.33
2019-03-26T22:35:22.805Z,4.57
2019-03-26T22:37:52.138Z,4.83
2019-03-26T22:40:21.481Z,3.77
2019-03-26T22:42:50.801Z,4.40
2019-03-26T22:45:20.129Z,4.40
2019-03-26T22:47:49.458Z,5.57
2019-03-26T22:50:18.863Z,3.90
2019-03-26T22:52:48.187Z,4.60
2019-03-26T22:55:17.514Z,4.70
2019-03-26T22:57:49.032Z,4.77
2019-03-26T23:00:19.525Z,4.50
2019-03-26T23:02:48.851Z,4.93
2019-03-26T23:05:18.846Z,4.43
2019-03-26T23:07:48.191Z,5.23
2019-03-26T23:10:17.816Z,5.10
2019-03-26T23:12:47.253Z,5.10
2019-03-26T23:15:19.631Z,4.70
2019-03-26T23:17:49.025Z,4.87
2019-03-26T23:20:18.354Z,4.13
2019-03-26T23:22:47.937Z,4.13
2019-03-26T23:25:17.398Z,4.27
2019-03-26T23:27:46.717Z,3.93
2019-03-26T23:30:16.985Z,4.20
2019-03-26T23:32:46.318Z,4.20
2019-03-26T23:35:15.823Z,4.33
2019-03-26T23:37:45.156Z,4.77
2019-03-26T23:40:14.827Z,5.30
2019-03-26T23:42:44.154Z,4.77
2019-03-26T23:45:13.722Z,5.13
2019-03-26T23:47:43.045Z,4.47
2019-03-26T23:50:13.019Z,3.77
2019-03-26T23:52:42.426Z,4.30
2019-03-26T23:55:12.488Z,4.37
2019-03-26T23:57:41.839Z,4.17
